Petone, New Zealand
Current Conditions -  °F | °C
As of 8:30 AM on Saturday 01 Nov 2014 (Local Time) from NZWN Reporting Station
Clear Clear  
Wind Chill: 59°   Ceiling: Unl
Heat Index: 59°   Visibility: 6mi
Dew Point: 41°   Wind: 17mph
Humidity: 51%   Direction: 360°N
Pressure: 29.94"   Gusts: NA
Location:  41.23°S, 174.88°E
Report Text: NZWN 312030Z AUTO 36015KT 9999 NCD 15/05 Q1014 NOSIG
Loading
Personal Weather Stations






























Interactive Weather Map
Tropical Storm Tracking
New forecast layout! Learn more

10-Day Weather Forecast

Advertisements
Track Severe Weather on mobile